sensor_id;sensor_type;location;lat;lon;timestamp;temperature;humidity
34815;DHT22;21030;53.912;15.214;2023-03-01T00:01:30;26.50;19.60
34815;DHT22;21030;53.912;15.214;2023-03-01T00:03:59;26.30;19.80
34815;DHT22;21030;53.912;15.214;2023-03-01T00:06:26;26.50;19.80
34815;DHT22;21030;53.912;15.214;2023-03-01T00:08:55;26.20;20.10
34815;DHT22;21030;53.912;15.214;2023-03-01T00:11:24;25.80;20.20
34815;DHT22;21030;53.912;15.214;2023-03-01T00:13:55;25.20;20.40
34815;DHT22;21030;53.912;15.214;2023-03-01T00:16:31;25.00;21.00
34815;DHT22;21030;53.912;15.214;2023-03-01T00:19:00;26.70;20.20
34815;DHT22;21030;53.912;15.214;2023-03-01T00:21:28;27.20;19.80
34815;DHT22;21030;53.912;15.214;2023-03-01T00:23:56;27.50;19.50
34815;DHT22;21030;53.912;15.214;2023-03-01T00:26:24;27.60;19.30
34815;DHT22;21030;53.912;15.214;2023-03-01T00:28:52;28.10;19.20
34815;DHT22;21030;53.912;15.214;2023-03-01T00:31:22;28.50;18.80
34815;DHT22;21030;53.912;15.214;2023-03-01T00:33:53;28.50;18.80
34815;DHT22;21030;53.912;15.214;2023-03-01T00:36:25;28.10;18.70
34815;DHT22;21030;53.912;15.214;2023-03-01T00:38:53;28.80;18.80
34815;DHT22;21030;53.912;15.214;2023-03-01T00:41:20;28.70;18.60
34815;DHT22;21030;53.912;15.214;2023-03-01T00:43:50;28.90;18.60
34815;DHT22;21030;53.912;15.214;2023-03-01T00:46:20;28.80;18.60
34815;DHT22;21030;53.912;15.214;2023-03-01T00:48:47;28.90;18.50
34815;DHT22;21030;53.912;15.214;2023-03-01T00:51:20;28.30;18.60
34815;DHT22;21030;53.912;15.214;2023-03-01T00:53:54;28.00;18.70
34815;DHT22;21030;53.912;15.214;2023-03-01T00:56:21;27.80;19.20
34815;DHT22;21030;53.912;15.214;2023-03-01T00:58:49;27.80;19.00
34815;DHT22;21030;53.912;15.214;2023-03-01T01:01:22;27.40;19.10
34815;DHT22;21030;53.912;15.214;2023-03-01T01:03:52;26.90;19.60
34815;DHT22;21030;53.912;15.214;2023-03-01T01:06:25;26.20;20.00
34815;DHT22;21030;53.912;15.214;2023-03-01T01:08:53;26.30;20.30
34815;DHT22;21030;53.912;15.214;2023-03-01T01:11:22;26.90;19.90
34815;DHT22;21030;53.912;15.214;2023-03-01T01:13:50;27.20;19.70
34815;DHT22;21030;53.912;15.214;2023-03-01T01:16:18;27.40;19.60
34815;DHT22;21030;53.912;15.214;2023-03-01T01:18:46;27.00;19.70
34815;DHT22;21030;53.912;15.214;2023-03-01T01:21:15;27.10;19.80
34815;DHT22;21030;53.912;15.214;2023-03-01T01:23:44;26.50;19.90
34815;DHT22;21030;53.912;15.214;2023-03-01T01:26:15;26.30;20.40
34815;DHT22;21030;53.912;15.214;2023-03-01T01:28:42;26.00;20.60
34815;DHT22;21030;53.912;15.214;2023-03-01T01:31:09;25.80;20.80
34815;DHT22;21030;53.912;15.214;2023-03-01T01:33:37;25.40;20.90
34815;DHT22;21030;53.912;15.214;2023-03-01T01:36:05;25.30;21.00
34815;DHT22;21030;53.912;15.214;2023-03-01T01:38:33;24.00;21.50
34815;DHT22;21030;53.912;15.214;2023-03-01T01:41:01;22.30;22.80
34815;DHT22;21030;53.912;15.214;2023-03-01T01:43:32;21.70;23.80
34815;DHT22;21030;53.912;15.214;2023-03-01T01:46:02;21.40;24.50
34815;DHT22;21030;53.912;15.214;2023-03-01T01:48:40;20.90;24.80
34815;DHT22;21030;53.912;15.214;2023-03-01T01:51:15;20.30;25.50
34815;DHT22;21030;53.912;15.214;2023-03-01T01:53:46;20.10;25.90
34815;DHT22;21030;53.912;15.214;2023-03-01T01:56:15;20.10;25.70
34815;DHT22;21030;53.912;15.214;2023-03-01T01:58:44;19.80;26.20
34815;DHT22;21030;53.912;15.214;2023-03-01T02:01:14;20.40;26.40
34815;DHT22;21030;53.912;15.214;2023-03-01T02:03:43;21.00;25.40
34815;DHT22;21030;53.912;15.214;2023-03-01T02:06:19;21.90;24.50
34815;DHT22;21030;53.912;15.214;2023-03-01T02:08:49;22.00;24.00
34815;DHT22;21030;53.912;15.214;2023-03-01T02:11:19;22.00;23.80
34815;DHT22;21030;53.912;15.214;2023-03-01T02:13:47;22.00;24.00
34815;DHT22;21030;53.912;15.214;2023-03-01T02:16:15;22.50;23.70
34815;DHT22;21030;53.912;15.214;2023-03-01T02:18:43;23.90;22.70
34815;DHT22;21030;53.912;15.214;2023-03-01T02:23:47;24.10;22.50
34815;DHT22;21030;53.912;15.214;2023-03-01T02:26:36;24.00;22.30
34815;DHT22;21030;53.912;15.214;2023-03-01T02:29:05;24.30;22.00
34815;DHT22;21030;53.912;15.214;2023-03-01T02:31:33;24.20;22.00
34815;DHT22;21030;53.912;15.214;2023-03-01T02:34:13;24.30;21.90
34815;DHT22;21030;53.912;15.214;2023-03-01T02:39:25;26.50;20.60
34815;DHT22;21030;53.912;15.214;2023-03-01T02:41:54;26.10;20.50
34815;DHT22;21030;53.912;15.214;2023-03-01T02:44:23;25.60;20.70
34815;DHT22;21030;53.912;15.214;2023-03-01T02:46:52;25.10;21.10
34815;DHT22;21030;53.912;15.214;2023-03-01T02:49:23;25.10;21.30
34815;DHT22;21030;53.912;15.214;2023-03-01T02:55:11;25.30;21.40
34815;DHT22;21030;53.912;15.214;2023-03-01T02:57:42;25.00;21.60
34815;DHT22;21030;53.912;15.214;2023-03-01T03:00:16;25.90;21.10
34815;DHT22;21030;53.912;15.214;2023-03-01T03:02:47;26.40;20.70
34815;DHT22;21030;53.912;15.214;2023-03-01T03:05:18;27.00;20.50
34815;DHT22;21030;53.912;15.214;2023-03-01T03:07:48;26.20;20.40
34815;DHT22;21030;53.912;15.214;2023-03-01T03:10:22;25.10;21.40
34815;DHT22;21030;53.912;15.214;2023-03-01T03:12:51;24.20;22.10
34815;DHT22;21030;53.912;15.214;2023-03-01T03:15:19;24.20;22.40
34815;DHT22;21030;53.912;15.214;2023-03-01T03:17:47;24.50;22.40
34815;DHT22;21030;53.912;15.214;2023-03-01T03:20:16;24.50;22.00
34815;DHT22;21030;53.912;15.214;2023-03-01T03:22:48;25.20;21.90
34815;DHT22;21030;53.912;15.214;2023-03-01T03:25:16;24.90;21.50
34815;DHT22;21030;53.912;15.214;2023-03-01T03:27:45;25.10;21.70
34815;DHT22;21030;53.912;15.214;2023-03-01T03:30:16;25.60;21.50
34815;DHT22;21030;53.912;15.214;2023-03-01T03:32:45;24.90;21.60
34815;DHT22;21030;53.912;15.214;2023-03-01T03:35:30;24.50;22.00
34815;DHT22;21030;53.912;15.214;2023-03-01T03:37:59;24.60;22.10
34815;DHT22;21030;53.912;15.214;2023-03-01T03:40:44;23.70;22.70
34815;DHT22;21030;53.912;15.214;2023-03-01T03:43:18;23.00;23.10
34815;DHT22;21030;53.912;15.214;2023-03-01T03:45:46;23.00;23.60
34815;DHT22;21030;53.912;15.214;2023-03-01T03:48:14;23.40;23.30
34815;DHT22;21030;53.912;15.214;2023-03-01T03:50:48;23.70;22.90
34815;DHT22;21030;53.912;15.214;2023-03-01T03:53:16;24.60;22.40
34815;DHT22;21030;53.912;15.214;2023-03-01T03:55:43;25.10;22.00
34815;DHT22;21030;53.912;15.214;2023-03-01T03:58:11;25.50;21.60
34815;DHT22;21030;53.912;15.214;2023-03-01T04:00:41;25.40;21.40
34815;DHT22;21030;53.912;15.214;2023-03-01T04:03:09;25.10;21.50
34815;DHT22;21030;53.912;15.214;2023-03-01T04:05:39;25.30;21.40
34815;DHT22;21030;53.912;15.214;2023-03-01T04:08:07;25.50;21.60
34815;DHT22;21030;53.912;15.214;2023-03-01T04:10:36;25.60;21.50
34815;DHT22;21030;53.912;15.214;2023-03-01T04:13:05;26.00;21.40
34815;DHT22;21030;53.912;15.214;2023-03-01T04:15:33;25.60;21.20
34815;DHT22;21030;53.912;15.214;2023-03-01T04:18:01;25.70;21.30
34815;DHT22;21030;53.912;15.214;2023-03-01T04:20:31;25.90;21.30
34815;DHT22;21030;53.912;15.214;2023-03-01T04:23:11;25.00;21.70
34815;DHT22;21030;53.912;15.214;2023-03-01T04:25:58;24.40;22.30
34815;DHT22;21030;53.912;15.214;2023-03-01T04:28:26;24.30;22.80
34815;DHT22;21030;53.912;15.214;2023-03-01T04:30:56;25.20;22.10
34815;DHT22;21030;53.912;15.214;2023-03-01T04:33:24;25.30;21.90
34815;DHT22;21030;53.912;15.214;2023-03-01T04:35:52;25.00;21.90
34815;DHT22;21030;53.912;15.214;2023-03-01T04:38:20;24.70;22.30
34815;DHT22;21030;53.912;15.214;2023-03-01T04:40:48;24.30;22.70
34815;DHT22;21030;53.912;15.214;2023-03-01T04:43:15;25.30;22.10
34815;DHT22;21030;53.912;15.214;2023-03-01T04:45:42;25.70;21.80
34815;DHT22;21030;53.912;15.214;2023-03-01T04:48:09;25.80;21.50
34815;DHT22;21030;53.912;15.214;2023-03-01T04:50:37;26.30;21.20
34815;DHT22;21030;53.912;15.214;2023-03-01T04:53:04;27.20;20.70
34815;DHT22;21030;53.912;15.214;2023-03-01T04:55:31;26.70;20.60
34815;DHT22;21030;53.912;15.214;2023-03-01T04:57:58;26.10;21.20
34815;DHT22;21030;53.912;15.214;2023-03-01T05:00:25;25.40;21.50
34815;DHT22;21030;53.912;15.214;2023-03-01T05:02:57;24.70;22.00
34815;DHT22;21030;53.912;15.214;2023-03-01T05:07:57;25.60;22.00
34815;DHT22;21030;53.912;15.214;2023-03-01T05:10:25;26.20;21.40
34815;DHT22;21030;53.912;15.214;2023-03-01T05:12:53;25.80;21.20
34815;DHT22;21030;53.912;15.214;2023-03-01T05:15:21;25.70;21.50
34815;DHT22;21030;53.912;15.214;2023-03-01T05:17:58;25.40;21.60
34815;DHT22;21030;53.912;15.214;2023-03-01T05:20:29;24.80;21.70
34815;DHT22;21030;53.912;15.214;2023-03-01T05:22:59;24.00;22.40
34815;DHT22;21030;53.912;15.214;2023-03-01T05:25:27;23.80;22.90
34815;DHT22;21030;53.912;15.214;2023-03-01T05:28:01;23.40;23.30
34815;DHT22;21030;53.912;15.214;2023-03-01T05:30:33;23.80;23.40
34815;DHT22;21030;53.912;15.214;2023-03-01T05:33:00;24.60;22.40
34815;DHT22;21030;53.912;15.214;2023-03-01T05:35:28;25.30;22.00
34815;DHT22;21030;53.912;15.214;2023-03-01T05:37:56;26.00;21.50
34815;DHT22;21030;53.912;15.214;2023-03-01T05:40:24;26.30;21.20
34815;DHT22;21030;53.912;15.214;2023-03-01T05:42:56;26.20;21.20
34815;DHT22;21030;53.912;15.214;2023-03-01T05:45:26;26.00;21.30
34815;DHT22;21030;53.912;15.214;2023-03-01T05:47:54;26.20;21.10
34815;DHT22;21030;53.912;15.214;2023-03-01T05:50:24;25.90;21.00
34815;DHT22;21030;53.912;15.214;2023-03-01T05:53:04;25.60;22.10
34815;DHT22;21030;53.912;15.214;2023-03-01T05:55:32;25.90;21.30
34815;DHT22;21030;53.912;15.214;2023-03-01T05:58:01;25.70;21.30
34815;DHT22;21030;53.912;15.214;2023-03-01T06:00:30;25.50;21.50
34815;DHT22;21030;53.912;15.214;2023-03-01T06:02:58;25.40;21.60
34815;DHT22;21030;53.912;15.214;2023-03-01T06:05:27;24.70;21.90
34815;DHT22;21030;53.912;15.214;2023-03-01T06:07:55;25.20;22.00
34815;DHT22;21030;53.912;15.214;2023-03-01T06:10:22;24.90;21.80
34815;DHT22;21030;53.912;15.214;2023-03-01T06:12:50;24.70;22.00
34815;DHT22;21030;53.912;15.214;2023-03-01T06:15:17;24.50;22.30
34815;DHT22;21030;53.912;15.214;2023-03-01T06:17:45;24.00;22.60
34815;DHT22;21030;53.912;15.214;2023-03-01T06:20:15;23.80;23.00
34815;DHT22;21030;53.912;15.214;2023-03-01T06:22:44;23.60;23.50
34815;DHT22;21030;53.912;15.214;2023-03-01T06:25:13;23.20;23.60
34815;DHT22;21030;53.912;15.214;2023-03-01T06:27:40;23.20;23.70
34815;DHT22;21030;53.912;15.214;2023-03-01T06:30:10;23.50;23.60
34815;DHT22;21030;53.912;15.214;2023-03-01T06:32:38;23.50;23.30
34815;DHT22;21030;53.912;15.214;2023-03-01T06:35:13;23.70;23.40
34815;DHT22;21030;53.912;15.214;2023-03-01T06:37:41;23.70;23.00
34815;DHT22;21030;53.912;15.214;2023-03-01T06:40:10;24.10;23.10
34815;DHT22;21030;53.912;15.214;2023-03-01T06:42:42;24.60;22.80
34815;DHT22;21030;53.912;15.214;2023-03-01T06:45:10;25.10;22.20
34815;DHT22;21030;53.912;15.214;2023-03-01T06:47:38;24.50;22.30
34815;DHT22;21030;53.912;15.214;2023-03-01T06:50:06;24.70;22.50
34815;DHT22;21030;53.912;15.214;2023-03-01T06:52:33;25.10;22.00
34815;DHT22;21030;53.912;15.214;2023-03-01T06:55:01;25.60;21.80
34815;DHT22;21030;53.912;15.214;2023-03-01T06:57:31;25.30;21.50
34815;DHT22;21030;53.912;15.214;2023-03-01T06:59:58;24.80;21.80
34815;DHT22;21030;53.912;15.214;2023-03-01T07:02:25;24.30;22.40
34815;DHT22;21030;53.912;15.214;2023-03-01T07:04:52;24.00;22.80
34815;DHT22;21030;53.912;15.214;2023-03-01T07:07:19;23.90;22.70
34815;DHT22;21030;53.912;15.214;2023-03-01T07:09:49;23.50;23.20
34815;DHT22;21030;53.912;15.214;2023-03-01T07:12:16;23.60;23.10
34815;DHT22;21030;53.912;15.214;2023-03-01T07:14:44;24.20;22.90
34815;DHT22;21030;53.912;15.214;2023-03-01T07:17:11;24.90;22.30
34815;DHT22;21030;53.912;15.214;2023-03-01T07:19:38;25.40;21.70
34815;DHT22;21030;53.912;15.214;2023-03-01T07:22:05;26.20;21.60
34815;DHT22;21030;53.912;15.214;2023-03-01T07:24:34;27.00;21.10
34815;DHT22;21030;53.912;15.214;2023-03-01T07:27:02;28.00;20.50
34815;DHT22;21030;53.912;15.214;2023-03-01T07:29:29;27.80;20.20
34815;DHT22;21030;53.912;15.214;2023-03-01T07:31:56;27.80;20.10
34815;DHT22;21030;53.912;15.214;2023-03-01T07:34:24;28.20;20.10
34815;DHT22;21030;53.912;15.214;2023-03-01T07:36:51;28.10;20.30
34815;DHT22;21030;53.912;15.214;2023-03-01T07:39:19;27.80;19.90
34815;DHT22;21030;53.912;15.214;2023-03-01T07:41:46;28.20;20.10
34815;DHT22;21030;53.912;15.214;2023-03-01T07:44:16;28.70;20.00
34815;DHT22;21030;53.912;15.214;2023-03-01T07:46:44;28.60;19.70
34815;DHT22;21030;53.912;15.214;2023-03-01T07:49:11;28.90;19.70
34815;DHT22;21030;53.912;15.214;2023-03-01T07:51:38;29.60;19.30
34815;DHT22;21030;53.912;15.214;2023-03-01T07:54:05;29.70;19.30
34815;DHT22;21030;53.912;15.214;2023-03-01T07:56:33;29.80;19.40
34815;DHT22;21030;53.912;15.214;2023-03-01T07:59:00;30.00;19.00
34815;DHT22;21030;53.912;15.214;2023-03-01T08:01:28;30.00;18.90
34815;DHT22;21030;53.912;15.214;2023-03-01T08:03:56;30.20;19.00
34815;DHT22;21030;53.912;15.214;2023-03-01T08:06:23;30.40;19.00
34815;DHT22;21030;53.912;15.214;2023-03-01T08:08:50;30.00;19.00
34815;DHT22;21030;53.912;15.214;2023-03-01T08:11:17;30.90;19.10
34815;DHT22;21030;53.912;15.214;2023-03-01T08:13:47;30.80;18.70
34815;DHT22;21030;53.912;15.214;2023-03-01T08:16:17;30.70;18.40
34815;DHT22;21030;53.912;15.214;2023-03-01T08:18:44;30.00;18.70
34815;DHT22;21030;53.912;15.214;2023-03-01T08:21:14;30.00;18.80
34815;DHT22;21030;53.912;15.214;2023-03-01T08:23:42;29.80;18.90
34815;DHT22;21030;53.912;15.214;2023-03-01T08:26:12;30.40;19.20
34815;DHT22;21030;53.912;15.214;2023-03-01T08:28:40;31.20;18.70
34815;DHT22;21030;53.912;15.214;2023-03-01T08:31:16;32.20;18.40
34815;DHT22;21030;53.912;15.214;2023-03-01T08:33:45;32.60;17.80
34815;DHT22;21030;53.912;15.214;2023-03-01T08:36:17;32.70;17.70
34815;DHT22;21030;53.912;15.214;2023-03-01T08:38:45;32.40;17.60
34815;DHT22;21030;53.912;15.214;2023-03-01T08:41:13;32.50;17.70
34815;DHT22;21030;53.912;15.214;2023-03-01T08:43:40;33.60;17.90
34815;DHT22;21030;53.912;15.214;2023-03-01T08:46:08;34.50;17.50
34815;DHT22;21030;53.912;15.214;2023-03-01T08:48:35;34.80;17.30
34815;DHT22;21030;53.912;15.214;2023-03-01T08:51:16;35.00;16.90
34815;DHT22;21030;53.912;15.214;2023-03-01T08:53:45;35.70;16.60
34815;DHT22;21030;53.912;15.214;2023-03-01T08:56:12;36.30;16.70
34815;DHT22;21030;53.912;15.214;2023-03-01T08:58:43;35.60;16.10
34815;DHT22;21030;53.912;15.214;2023-03-01T09:01:11;35.20;16.50
34815;DHT22;21030;53.912;15.214;2023-03-01T09:03:39;36.10;16.70
34815;DHT22;21030;53.912;15.214;2023-03-01T09:06:07;36.60;16.40
34815;DHT22;21030;53.912;15.214;2023-03-01T09:08:38;36.80;16.10
34815;DHT22;21030;53.912;15.214;2023-03-01T09:11:07;35.90;16.10
34815;DHT22;21030;53.912;15.214;2023-03-01T09:13:35;35.20;16.20
34815;DHT22;21030;53.912;15.214;2023-03-01T09:16:04;35.30;16.50
34815;DHT22;21030;53.912;15.214;2023-03-01T09:18:32;35.50;16.80
34815;DHT22;21030;53.912;15.214;2023-03-01T09:21:22;36.10;16.30
34815;DHT22;21030;53.912;15.214;2023-03-01T09:24:12;36.60;16.10
34815;DHT22;21030;53.912;15.214;2023-03-01T09:26:40;37.60;15.80
34815;DHT22;21030;53.912;15.214;2023-03-01T09:29:07;37.30;15.80
34815;DHT22;21030;53.912;15.214;2023-03-01T09:31:37;37.60;15.70
34815;DHT22;21030;53.912;15.214;2023-03-01T09:34:05;38.10;15.70
34815;DHT22;21030;53.912;15.214;2023-03-01T09:36:33;37.40;15.80
34815;DHT22;21030;53.912;15.214;2023-03-01T09:39:01;36.90;15.80
34815;DHT22;21030;53.912;15.214;2023-03-01T09:41:45;36.60;16.10
34815;DHT22;21030;53.912;15.214;2023-03-01T09:47:17;37.40;16.10
34815;DHT22;21030;53.912;15.214;2023-03-01T09:50:10;36.50;16.50
34815;DHT22;21030;53.912;15.214;2023-03-01T09:52:42;36.10;16.60
34815;DHT22;21030;53.912;15.214;2023-03-01T09:55:25;35.20;16.90
34815;DHT22;21030;53.912;15.214;2023-03-01T10:00:48;36.20;17.10
34815;DHT22;21030;53.912;15.214;2023-03-01T10:03:36;35.80;17.00
34815;DHT22;21030;53.912;15.214;2023-03-01T10:09:02;38.20;16.40
34815;DHT22;21030;53.912;15.214;2023-03-01T10:11:32;37.50;16.20
34815;DHT22;21030;53.912;15.214;2023-03-01T10:19:47;37.10;17.00
34815;DHT22;21030;53.912;15.214;2023-03-01T10:24:51;38.10;16.20
34815;DHT22;21030;53.912;15.214;2023-03-01T10:30:20;37.30;16.30
34815;DHT22;21030;53.912;15.214;2023-03-01T10:32:51;37.10;16.60
34815;DHT22;21030;53.912;15.214;2023-03-01T10:35:22;36.30;17.20
34815;DHT22;21030;53.912;15.214;2023-03-01T10:38:10;37.70;17.00
34815;DHT22;21030;53.912;15.214;2023-03-01T10:40:57;37.60;16.50
34815;DHT22;21030;53.912;15.214;2023-03-01T10:43:26;38.70;16.80
34815;DHT22;21030;53.912;15.214;2023-03-01T10:45:54;39.70;16.10
34815;DHT22;21030;53.912;15.214;2023-03-01T10:48:26;40.70;16.00
34815;DHT22;21030;53.912;15.214;2023-03-01T10:53:36;41.60;15.40
34815;DHT22;21030;53.912;15.214;2023-03-01T10:56:10;42.60;15.10
34815;DHT22;21030;53.912;15.214;2023-03-01T10:58:41;43.10;14.80
34815;DHT22;21030;53.912;15.214;2023-03-01T11:06:33;43.60;14.40
34815;DHT22;21030;53.912;15.214;2023-03-01T11:09:15;44.00;14.10
34815;DHT22;21030;53.912;15.214;2023-03-01T11:11:42;44.00;13.90
34815;DHT22;21030;53.912;15.214;2023-03-01T11:14:20;44.30;13.90
34815;DHT22;21030;53.912;15.214;2023-03-01T11:17:17;44.70;13.60
34815;DHT22;21030;53.912;15.214;2023-03-01T11:22:51;45.20;13.50
34815;DHT22;21030;53.912;15.214;2023-03-01T11:25:23;44.80;13.40
34815;DHT22;21030;53.912;15.214;2023-03-01T11:27:52;44.80;13.60
34815;DHT22;21030;53.912;15.214;2023-03-01T11:30:24;43.80;13.50
34815;DHT22;21030;53.912;15.214;2023-03-01T11:35:45;42.30;14.20
34815;DHT22;21030;53.912;15.214;2023-03-01T11:38:25;42.70;14.30
34815;DHT22;21030;53.912;15.214;2023-03-01T11:46:29;43.30;14.40
34815;DHT22;21030;53.912;15.214;2023-03-01T11:57:37;41.20;15.30
34815;DHT22;21030;53.912;15.214;2023-03-01T12:05:52;43.20;14.60
34815;DHT22;21030;53.912;15.214;2023-03-01T12:22:21;40.60;14.70
34815;DHT22;21030;53.912;15.214;2023-03-01T12:27:41;40.20;15.20
34815;DHT22;21030;53.912;15.214;2023-03-01T12:38:48;40.50;15.30
34815;DHT22;21030;53.912;15.214;2023-03-01T12:49:19;42.70;13.60
34815;DHT22;21030;53.912;15.214;2023-03-01T12:52:12;42.70;13.50
34815;DHT22;21030;53.912;15.214;2023-03-01T12:54:40;43.20;13.60
34815;DHT22;21030;53.912;15.214;2023-03-01T12:57:28;43.30;13.40
34815;DHT22;21030;53.912;15.214;2023-03-01T13:00:21;43.00;13.40
34815;DHT22;21030;53.912;15.214;2023-03-01T13:03:00;43.30;13.40
34815;DHT22;21030;53.912;15.214;2023-03-01T13:05:47;43.00;13.60
34815;DHT22;21030;53.912;15.214;2023-03-01T13:08:20;43.00;13.50
34815;DHT22;21030;53.912;15.214;2023-03-01T13:10:58;43.00;13.50
34815;DHT22;21030;53.912;15.214;2023-03-01T13:13:28;43.20;13.70
34815;DHT22;21030;53.912;15.214;2023-03-01T13:15:56;43.00;13.90
34815;DHT22;21030;53.912;15.214;2023-03-01T13:20:55;43.20;13.50
34815;DHT22;21030;53.912;15.214;2023-03-01T13:23:25;44.00;13.60
34815;DHT22;21030;53.912;15.214;2023-03-01T13:26:16;44.00;13.40
34815;DHT22;21030;53.912;15.214;2023-03-01T13:28:48;43.40;13.40
34815;DHT22;21030;53.912;15.214;2023-03-01T13:33:49;43.90;13.60
34815;DHT22;21030;53.912;15.214;2023-03-01T13:44:35;43.40;13.80
34815;DHT22;21030;53.912;15.214;2023-03-01T13:49:43;43.30;14.00
34815;DHT22;21030;53.912;15.214;2023-03-01T13:57:54;43.20;14.20
34815;DHT22;21030;53.912;15.214;2023-03-01T14:00:38;43.40;14.10
34815;DHT22;21030;53.912;15.214;2023-03-01T14:03:18;43.50;14.10
34815;DHT22;21030;53.912;15.214;2023-03-01T14:06:07;43.50;14.00
34815;DHT22;21030;53.912;15.214;2023-03-01T14:08:44;43.70;14.10
34815;DHT22;21030;53.912;15.214;2023-03-01T14:11:34;43.60;14.00
34815;DHT22;21030;53.912;15.214;2023-03-01T14:19:35;43.10;14.20
34815;DHT22;21030;53.912;15.214;2023-03-01T14:22:24;42.70;14.30
34815;DHT22;21030;53.912;15.214;2023-03-01T14:25:16;42.70;14.30
34815;DHT22;21030;53.912;15.214;2023-03-01T14:27:44;42.70;14.30
34815;DHT22;21030;53.912;15.214;2023-03-01T14:30:18;42.70;14.40
34815;DHT22;21030;53.912;15.214;2023-03-01T14:33:26;42.50;14.30
34815;DHT22;21030;53.912;15.214;2023-03-01T14:36:00;42.40;14.40
34815;DHT22;21030;53.912;15.214;2023-03-01T14:38:35;42.50;14.50
34815;DHT22;21030;53.912;15.214;2023-03-01T14:41:13;42.70;14.50
34815;DHT22;21030;53.912;15.214;2023-03-01T14:43:47;42.80;14.60
34815;DHT22;21030;53.912;15.214;2023-03-01T14:46:21;42.80;14.60
34815;DHT22;21030;53.912;15.214;2023-03-01T14:48:57;42.90;14.60
34815;DHT22;21030;53.912;15.214;2023-03-01T14:51:28;42.90;14.50
34815;DHT22;21030;53.912;15.214;2023-03-01T14:53:56;42.70;14.50
34815;DHT22;21030;53.912;15.214;2023-03-01T14:56:23;42.30;14.30
34815;DHT22;21030;53.912;15.214;2023-03-01T14:58:58;42.40;14.40
34815;DHT22;21030;53.912;15.214;2023-03-01T15:01:26;42.50;14.60
34815;DHT22;21030;53.912;15.214;2023-03-01T15:03:54;42.30;14.40
34815;DHT22;21030;53.912;15.214;2023-03-01T15:06:24;42.20;14.30
34815;DHT22;21030;53.912;15.214;2023-03-01T15:08:53;42.00;14.30
34815;DHT22;21030;53.912;15.214;2023-03-01T15:11:24;41.90;14.30
34815;DHT22;21030;53.912;15.214;2023-03-01T15:13:52;42.30;14.60
34815;DHT22;21030;53.912;15.214;2023-03-01T15:19:05;42.00;14.50
34815;DHT22;21030;53.912;15.214;2023-03-01T15:21:35;41.70;14.50
34815;DHT22;21030;53.912;15.214;2023-03-01T15:26:43;41.30;14.70
34815;DHT22;21030;53.912;15.214;2023-03-01T15:29:20;40.90;14.80
34815;DHT22;21030;53.912;15.214;2023-03-01T15:32:00;40.90;14.90
34815;DHT22;21030;53.912;15.214;2023-03-01T15:34:38;40.70;14.90
34815;DHT22;21030;53.912;15.214;2023-03-01T15:37:32;40.70;15.00
34815;DHT22;21030;53.912;15.214;2023-03-01T15:39:55;40.50;15.10
34815;DHT22;21030;53.912;15.214;2023-03-01T15:45:21;39.80;15.60
34815;DHT22;21030;53.912;15.214;2023-03-01T15:47:52;39.20;15.90
34815;DHT22;21030;53.912;15.214;2023-03-01T15:50:36;38.40;16.40
34815;DHT22;21030;53.912;15.214;2023-03-01T15:53:11;37.70;17.00
34815;DHT22;21030;53.912;15.214;2023-03-01T15:55:39;36.90;17.20
34815;DHT22;21030;53.912;15.214;2023-03-01T15:58:13;36.30;17.70
34815;DHT22;21030;53.912;15.214;2023-03-01T16:00:40;36.30;17.90
34815;DHT22;21030;53.912;15.214;2023-03-01T16:03:26;36.20;18.00
34815;DHT22;21030;53.912;15.214;2023-03-01T16:05:53;35.80;18.10
34815;DHT22;21030;53.912;15.214;2023-03-01T16:08:20;35.50;18.30
34815;DHT22;21030;53.912;15.214;2023-03-01T16:10:48;35.30;18.50
34815;DHT22;21030;53.912;15.214;2023-03-01T16:13:18;35.20;18.60
34815;DHT22;21030;53.912;15.214;2023-03-01T16:15:46;34.80;18.90
34815;DHT22;21030;53.912;15.214;2023-03-01T16:18:13;34.80;19.10
34815;DHT22;21030;53.912;15.214;2023-03-01T16:20:41;34.50;19.30
34815;DHT22;21030;53.912;15.214;2023-03-01T16:23:10;34.40;19.50
34815;DHT22;21030;53.912;15.214;2023-03-01T16:25:38;34.20;19.70
34815;DHT22;21030;53.912;15.214;2023-03-01T16:28:06;33.90;20.10
34815;DHT22;21030;53.912;15.214;2023-03-01T16:30:37;33.80;20.10
34815;DHT22;21030;53.912;15.214;2023-03-01T16:33:06;33.70;20.40
34815;DHT22;21030;53.912;15.214;2023-03-01T16:35:51;33.60;20.40
34815;DHT22;21030;53.912;15.214;2023-03-01T16:38:18;33.40;20.30
34815;DHT22;21030;53.912;15.214;2023-03-01T16:40:49;33.40;20.50
34815;DHT22;21030;53.912;15.214;2023-03-01T16:43:16;33.40;20.40
34815;DHT22;21030;53.912;15.214;2023-03-01T16:45:43;33.50;20.50
34815;DHT22;21030;53.912;15.214;2023-03-01T16:48:14;33.30;20.50
34815;DHT22;21030;53.912;15.214;2023-03-01T16:50:41;33.10;20.50
34815;DHT22;21030;53.912;15.214;2023-03-01T16:53:08;33.30;20.50
34815;DHT22;21030;53.912;15.214;2023-03-01T16:55:36;33.40;20.40
34815;DHT22;21030;53.912;15.214;2023-03-01T16:58:04;33.20;20.40
34815;DHT22;21030;53.912;15.214;2023-03-01T17:00:33;33.10;20.50
34815;DHT22;21030;53.912;15.214;2023-03-01T17:03:01;32.90;20.60
34815;DHT22;21030;53.912;15.214;2023-03-01T17:05:28;32.70;20.60
34815;DHT22;21030;53.912;15.214;2023-03-01T17:07:56;32.40;20.60
34815;DHT22;21030;53.912;15.214;2023-03-01T17:10:23;32.20;20.70
34815;DHT22;21030;53.912;15.214;2023-03-01T17:12:50;31.90;20.70
34815;DHT22;21030;53.912;15.214;2023-03-01T17:15:18;31.70;21.00
34815;DHT22;21030;53.912;15.214;2023-03-01T17:17:45;31.70;21.10
34815;DHT22;21030;53.912;15.214;2023-03-01T17:20:18;31.70;21.10
34815;DHT22;21030;53.912;15.214;2023-03-01T17:22:45;31.20;21.70
34815;DHT22;21030;53.912;15.214;2023-03-01T17:25:12;31.20;21.30
34815;DHT22;21030;53.912;15.214;2023-03-01T17:27:40;31.10;21.20
34815;DHT22;21030;53.912;15.214;2023-03-01T17:30:09;31.20;21.10
34815;DHT22;21030;53.912;15.214;2023-03-01T17:32:36;30.90;20.90
34815;DHT22;21030;53.912;15.214;2023-03-01T17:35:05;30.60;21.20
34815;DHT22;21030;53.912;15.214;2023-03-01T17:37:33;30.10;21.50
34815;DHT22;21030;53.912;15.214;2023-03-01T17:40:06;30.40;21.40
34815;DHT22;21030;53.912;15.214;2023-03-01T17:42:33;30.50;21.50
34815;DHT22;21030;53.912;15.214;2023-03-01T17:45:00;30.50;21.40
34815;DHT22;21030;53.912;15.214;2023-03-01T17:47:27;30.20;21.40
34815;DHT22;21030;53.912;15.214;2023-03-01T17:49:54;29.80;21.60
34815;DHT22;21030;53.912;15.214;2023-03-01T17:52:21;30.10;21.60